createdAt,value
2022-11-20T05:13:19.222Z,3.70
2022-11-20T05:15:50.738Z,3.90
2022-11-20T05:18:22.280Z,3.70
2022-11-20T05:20:55.455Z,3.70
2022-11-20T05:28:32.657Z,3.60
2022-11-20T05:31:07.438Z,3.50
2022-11-20T05:38:42.747Z,3.60
2022-11-20T05:41:14.635Z,3.50
2022-11-20T05:53:58.086Z,3.70
2022-11-20T05:56:29.580Z,3.50
2022-11-20T05:59:01.161Z,3.60
2022-11-20T06:01:32.675Z,3.60
2022-11-20T06:04:04.354Z,3.50
2022-11-20T06:39:34.034Z,3.30
2022-11-20T06:44:37.426Z,3.20
2022-11-20T06:47:09.328Z,3.30
2022-11-20T10:28:18.989Z,7.10
2022-11-20T10:30:55.291Z,6.60
2022-11-20T10:33:29.114Z,6.40
2022-11-20T10:36:09.536Z,6.20
2022-11-20T10:38:43.345Z,6.30
2022-11-20T10:41:17.876Z,6.70
2022-11-20T10:43:52.111Z,6.50
2022-11-20T10:46:23.830Z,6.80
2022-11-20T10:48:55.504Z,6.90
2022-11-20T10:51:33.697Z,7.10
2022-11-20T10:54:13.966Z,6.90
2022-11-20T10:56:50.182Z,7.00
2022-11-20T10:59:42.860Z,7.30
2022-11-20T11:02:18.898Z,6.90
2022-11-20T11:04:50.832Z,6.80
2022-11-20T11:07:24.690Z,7.00
2022-11-20T11:09:57.155Z,6.60
2022-11-20T11:15:02.718Z,6.20
2022-11-20T11:17:34.781Z,6.40
2022-11-20T11:20:14.989Z,6.40
2022-11-20T11:22:47.724Z,6.40
2022-11-20T11:25:21.165Z,6.00
2022-11-20T11:27:53.277Z,6.50
2022-11-20T11:30:27.239Z,6.70
2022-11-20T11:33:06.547Z,6.60
2022-11-20T11:35:48.248Z,6.20
2022-11-20T11:38:23.629Z,6.30
2022-11-20T11:40:55.592Z,6.50
2022-11-20T11:43:27.833Z,6.50
2022-11-20T11:46:00.995Z,6.60
2022-11-20T11:48:32.651Z,6.70
2022-11-20T11:51:08.291Z,6.40
2022-11-20T11:53:40.972Z,6.60
2022-11-20T11:56:12.719Z,6.50
2022-11-20T11:58:45.846Z,6.40
2022-11-20T12:01:28.945Z,6.40
2022-11-20T12:04:03.360Z,6.30
2022-11-20T12:06:35.559Z,6.50
2022-11-20T12:09:09.695Z,6.70
2022-11-20T12:11:44.730Z,6.40
2022-11-20T12:14:18.572Z,6.60
2022-11-20T12:16:51.656Z,6.70
2022-11-20T12:19:23.580Z,6.50
2022-11-20T12:22:00.271Z,6.70
2022-11-20T12:24:43.524Z,6.30
2022-11-20T12:27:42.664Z,6.60
2022-11-20T12:30:15.023Z,6.60
2022-11-20T12:32:56.041Z,6.70
2022-11-20T12:35:38.463Z,6.40
2022-11-20T12:38:27.042Z,6.50
2022-11-20T12:41:01.954Z,6.90
2022-11-20T12:43:35.794Z,6.90
2022-11-20T12:46:13.544Z,6.40
2022-11-20T12:49:02.289Z,6.70
2022-11-20T12:51:45.333Z,6.60
2022-11-20T12:57:03.964Z,6.80
2022-11-20T12:59:47.956Z,7.20
2022-11-20T13:02:24.228Z,7.10
2022-11-20T13:05:10.850Z,7.40
2022-11-20T13:07:42.851Z,7.10
2022-11-20T13:10:17.368Z,7.40
2022-11-20T13:12:51.202Z,7.60
2022-11-20T13:15:32.350Z,7.20
2022-11-20T13:18:04.802Z,7.10
2022-11-20T13:20:38.936Z,7.20
2022-11-20T13:23:10.639Z,7.40
2022-11-20T13:25:42.293Z,7.10
2022-11-20T13:28:30.205Z,7.50
2022-11-20T13:31:01.923Z,7.40
2022-11-20T13:33:34.185Z,7.40
2022-11-20T13:36:08.623Z,7.30
2022-11-20T13:38:44.344Z,7.40
2022-11-20T13:41:24.610Z,7.40
2022-11-20T13:43:59.338Z,7.70
2022-11-20T13:46:38.619Z,7.40
2022-11-20T13:49:11.354Z,7.30
2022-11-20T13:51:45.863Z,7.40
2022-11-20T13:54:42.548Z,7.30
2022-11-20T13:57:42.942Z,7.10
2022-11-20T14:00:15.847Z,7.20
2022-11-20T14:02:53.781Z,7.30
2022-11-20T14:05:25.524Z,7.10
2022-11-20T14:07:58.669Z,7.20
2022-11-20T14:10:32.448Z,7.00
2022-11-20T14:13:11.506Z,6.90
2022-11-20T14:15:45.110Z,7.10
2022-11-20T14:18:20.720Z,6.90
2022-11-20T14:20:52.361Z,7.00
2022-11-20T14:23:30.237Z,7.00
2022-11-20T14:26:02.027Z,7.00
2022-11-20T14:28:33.703Z,6.80
2022-11-20T14:31:05.373Z,6.80
2022-11-20T14:33:37.062Z,6.90
2022-11-20T14:36:17.409Z,6.80
2022-11-20T14:38:50.855Z,6.80
2022-11-20T14:41:23.362Z,6.80
2022-11-20T14:46:28.245Z,7.00
2022-11-20T14:49:01.919Z,7.00
2022-11-20T14:51:34.591Z,6.80
2022-11-20T14:54:11.763Z,6.80
2022-11-20T14:56:43.590Z,7.00
2022-11-20T14:59:23.807Z,7.00
2022-11-20T15:01:56.334Z,6.90
2022-11-20T15:04:28.152Z,6.80
2022-11-20T15:07:01.348Z,6.90
2022-11-20T15:09:34.432Z,6.90
2022-11-20T15:12:06.566Z,6.70
2022-11-20T15:14:38.227Z,6.90
2022-11-20T15:17:10.288Z,6.90
2022-11-20T15:19:41.995Z,7.00
2022-11-20T15:22:13.651Z,6.90
2022-11-20T15:24:46.691Z,6.70
2022-11-20T15:27:18.351Z,6.90
2022-11-20T15:29:50.028Z,6.60
2022-11-20T15:32:21.667Z,6.70
2022-11-20T15:34:53.322Z,6.70
2022-11-20T15:37:29.856Z,6.50
2022-11-20T15:40:03.245Z,6.80
2022-11-20T15:42:35.091Z,6.60
2022-11-20T15:45:07.309Z,6.80
2022-11-20T15:47:38.982Z,6.70
2022-11-20T15:50:11.983Z,6.70
2022-11-20T15:52:43.625Z,6.70
2022-11-20T15:55:16.640Z,6.70
2022-11-20T15:57:48.287Z,6.80
2022-11-20T16:00:23.580Z,6.70
2022-11-20T16:02:55.561Z,6.80
2022-11-20T16:05:29.141Z,6.90
2022-11-20T16:08:00.819Z,6.90
2022-11-20T16:10:33.860Z,7.40
2022-11-20T16:13:05.560Z,6.60
2022-11-20T16:15:37.196Z,7.20
2022-11-20T16:18:09.902Z,6.80
2022-11-20T16:20:41.572Z,6.50
2022-11-20T16:23:13.269Z,6.70
2022-11-20T16:25:46.233Z,6.70
2022-11-20T16:28:19.367Z,6.60
2022-11-20T16:30:51.354Z,6.80
2022-11-20T16:33:23.051Z,6.80
2022-11-20T16:35:54.697Z,6.50
2022-11-20T16:38:26.352Z,6.90
2022-11-20T16:41:02.412Z,6.70
2022-11-20T16:43:34.087Z,6.90
2022-11-20T16:46:05.774Z,6.90
2022-11-20T16:48:37.432Z,6.70
2022-11-20T16:51:09.803Z,6.80
2022-11-20T16:53:41.447Z,6.70
2022-11-20T16:56:15.011Z,6.70
2022-11-20T16:58:47.327Z,6.80
2022-11-20T17:01:19.947Z,6.70
2022-11-20T17:03:55.236Z,6.90
2022-11-20T17:06:27.728Z,6.90
2022-11-20T17:08:59.379Z,7.10
2022-11-20T17:11:32.384Z,7.00
2022-11-20T17:17:06.186Z,6.60
2022-11-20T17:19:37.992Z,6.60
2022-11-20T17:22:09.632Z,7.10
2022-11-20T17:24:41.292Z,6.60
2022-11-20T17:27:14.291Z,6.80
2022-11-20T17:29:45.963Z,6.80
2022-11-20T17:32:17.596Z,7.10
2022-11-20T17:34:49.264Z,7.40
2022-11-20T17:37:20.918Z,7.10
2022-11-20T17:39:52.574Z,7.10
2022-11-20T17:42:25.578Z,7.20
2022-11-20T17:44:57.265Z,7.20
2022-11-20T17:47:28.920Z,7.00
2022-11-20T17:50:00.578Z,7.00
2022-11-20T17:52:32.211Z,7.10
2022-11-20T17:55:04.253Z,6.80
2022-11-20T17:57:37.253Z,7.20
2022-11-20T18:00:09.900Z,7.00
2022-11-20T18:02:41.596Z,6.90
2022-11-20T18:05:13.254Z,7.00
2022-11-20T18:07:44.934Z,7.20
2022-11-20T18:10:16.684Z,7.00
2022-11-20T18:12:49.668Z,7.10
2022-11-20T18:15:21.327Z,7.30
2022-11-20T18:17:53.000Z,7.00
2022-11-20T18:20:30.266Z,7.10
2022-11-20T18:23:02.889Z,7.10
2022-11-20T18:25:34.550Z,6.80
2022-11-20T18:28:07.541Z,7.00
2022-11-20T18:30:39.211Z,7.00
2022-11-20T18:33:10.850Z,7.00
2022-11-20T18:35:42.520Z,6.90
2022-11-20T18:38:14.162Z,6.90
2022-11-20T18:40:45.822Z,7.10
2022-11-20T18:43:18.866Z,7.10
2022-11-20T18:45:50.518Z,7.40
2022-11-20T18:48:22.156Z,7.20
2022-11-20T18:50:53.820Z,7.10
2022-11-20T18:53:25.826Z,7.40
2022-11-20T18:55:57.466Z,7.10
2022-11-20T18:58:30.440Z,7.20
2022-11-20T19:01:05.389Z,7.00
2022-11-20T19:03:37.031Z,7.00
2022-11-20T19:06:12.655Z,7.00
2022-11-20T19:08:44.476Z,7.20
2022-11-20T19:11:16.173Z,7.20
2022-11-20T19:13:49.149Z,7.10
2022-11-20T19:16:20.927Z,7.30
2022-11-20T19:21:24.851Z,7.60
2022-11-20T19:23:57.301Z,7.50
2022-11-20T19:26:28.956Z,7.70
2022-11-20T19:29:01.957Z,7.70
2022-11-20T19:31:33.718Z,7.80
2022-11-20T19:34:05.359Z,7.90
2022-11-20T19:36:43.165Z,8.30
2022-11-20T19:39:16.757Z,8.10
2022-11-20T19:41:49.993Z,8.00
2022-11-20T19:44:22.971Z,8.10
2022-11-20T19:46:54.627Z,8.30
2022-11-20T19:49:26.600Z,8.10
2022-11-20T19:51:58.432Z,8.10
2022-11-20T19:54:30.080Z,8.00
2022-11-20T19:57:01.749Z,8.00
2022-11-20T19:59:34.719Z,8.00
2022-11-20T20:02:06.439Z,8.00
2022-11-20T20:04:38.108Z,8.10
2022-11-20T20:07:10.234Z,8.10
2022-11-20T20:09:41.921Z,8.20
2022-11-20T20:12:13.573Z,8.10
2022-11-20T20:14:46.570Z,8.20
2022-11-20T20:17:18.220Z,8.20
2022-11-20T20:19:49.881Z,8.10
2022-11-20T20:22:21.530Z,8.20
2022-11-20T20:24:53.185Z,8.10
2022-11-20T20:27:24.810Z,8.20
2022-11-20T20:29:57.800Z,8.20
2022-11-20T20:32:30.809Z,8.20
2022-11-20T20:35:02.461Z,8.20
2022-11-20T20:37:34.102Z,8.20
2022-11-20T20:40:09.828Z,8.20
2022-11-20T20:42:45.334Z,8.30
2022-11-20T20:45:18.360Z,8.40
2022-11-20T20:47:49.998Z,8.40
2022-11-20T20:50:21.788Z,8.40
2022-11-20T20:52:53.690Z,8.50
2022-11-20T20:55:25.360Z,8.40
2022-11-20T20:57:56.988Z,8.50
2022-11-20T21:00:30.044Z,8.50
2022-11-20T21:03:01.680Z,8.50
2022-11-20T21:05:33.319Z,8.40
2022-11-20T21:08:05.025Z,8.40
2022-11-20T21:10:36.678Z,8.40
2022-11-20T21:13:08.325Z,8.50
2022-11-20T21:15:41.325Z,8.40
2022-11-20T21:18:12.962Z,8.40
2022-11-20T21:20:44.890Z,8.50
2022-11-20T21:23:16.538Z,8.60
2022-11-20T21:25:48.204Z,8.60
2022-11-20T21:28:19.831Z,8.50
2022-11-20T21:30:52.827Z,8.40
2022-11-20T21:33:24.487Z,8.50
2022-11-20T21:35:58.211Z,8.40
2022-11-20T21:38:29.831Z,8.40
2022-11-20T21:41:01.637Z,8.30
2022-11-20T21:43:33.288Z,8.30
2022-11-20T21:46:07.188Z,8.30
2022-11-20T21:48:39.184Z,8.30
2022-11-20T21:51:11.548Z,8.20
2022-11-20T21:53:43.208Z,8.20
2022-11-20T21:56:20.115Z,8.20
2022-11-20T21:58:52.319Z,8.30
2022-11-20T22:01:26.057Z,8.30
2022-11-20T22:03:58.467Z,8.20
2022-11-20T22:06:31.341Z,8.60
2022-11-20T22:09:03.162Z,9.30
2022-11-20T22:11:34.807Z,8.30
2022-11-20T22:14:06.563Z,8.00
2022-11-20T22:16:39.609Z,8.20
2022-11-20T22:19:11.372Z,8.20
2022-11-20T22:21:43.021Z,8.20
2022-11-20T22:24:15.496Z,8.20
2022-11-20T22:26:47.223Z,8.10
2022-11-20T22:29:19.530Z,8.20
2022-11-20T22:31:52.843Z,8.20
2022-11-20T22:34:24.793Z,8.20
2022-11-20T22:36:56.674Z,8.20
2022-11-20T22:39:28.310Z,8.20
2022-11-20T22:41:59.960Z,8.20
2022-11-20T22:44:31.591Z,8.10
2022-11-20T22:47:10.091Z,8.10
2022-11-20T22:49:42.936Z,8.10
2022-11-20T22:52:14.616Z,8.00
2022-11-20T22:54:46.255Z,8.00
2022-11-20T22:57:17.958Z,8.00
2022-11-20T22:59:49.592Z,8.00
